Time;durP1;ratioP1;P1;durP2;ratioP2;P2;SDS_P1;SDS_P2;PMS_P1;PMS_P2;Temp;Humidity;BMP_temperature;BMP_pressure;BME280_temperature;BME280_humidity;BME280_pressure;Samples;Min_cycle;Max_cycle;Signal;HPM_P1;HPM_P2
2021/08/08 00:00:14;;;;;;;0.55;0.20;;;;;;;15.39;88.38;98582.22;2000886;81;20196;-78
2021/08/08 00:03:17;;;;;;;3.08;0.24;;;;;;;15.36;88.29;98584.97;2001397;77;20457;-78
2021/08/08 00:06:19;;;;;;;1.69;0.40;;;;;;;15.35;88.18;98588.50;2001998;80;20611;-78
2021/08/08 00:09:22;;;;;;;0.75;0.30;;;;;;;15.36;88.16;98591.06;2001436;80;20170;-78
2021/08/08 00:12:25;;;;;;;2.72;0.30;;;;;;;15.32;87.98;98589.47;2000795;81;20708;-78
2021/08/08 00:15:28;;;;;;;1.81;0.35;;;;;;;15.33;87.90;98599.03;1999710;77;24642;-78
2021/08/08 00:18:31;;;;;;;1.99;0.30;;;;;;;15.31;87.89;98593.00;2001609;81;20314;-78
2021/08/08 00:21:33;;;;;;;4.47;0.40;;;;;;;15.29;87.84;98601.81;2001624;81;20738;-78
2021/08/08 00:24:36;;;;;;;2.31;0.30;;;;;;;15.24;88.19;98604.56;2001506;81;20700;-77
2021/08/08 00:27:39;;;;;;;2.47;0.31;;;;;;;15.19;88.13;98608.25;2005043;80;20225;-78
2021/08/08 00:30:42;;;;;;;2.63;0.43;;;;;;;15.14;88.04;98616.28;2000136;81;20239;-78
2021/08/08 00:33:44;;;;;;;3.41;0.30;;;;;;;15.08;88.24;98622.59;2001978;81;20271;-78
2021/08/08 00:36:47;;;;;;;1.02;0.22;;;;;;;15.02;88.15;98628.00;2001634;81;20189;-78
2021/08/08 00:39:50;;;;;;;2.86;0.61;;;;;;;14.95;88.03;98620.44;2001236;81;20265;-78
2021/08/08 00:42:52;;;;;;;3.31;0.30;;;;;;;14.90;88.38;98622.34;2001488;81;20214;-78
2021/08/08 00:45:55;;;;;;;3.01;0.40;;;;;;;14.87;88.45;98618.06;2002142;78;22388;-77
2021/08/08 00:48:58;;;;;;;3.31;0.60;;;;;;;14.86;88.54;98628.59;2006910;80;20181;-78
2021/08/08 00:52:02;;;;;;;2.09;0.40;;;;;;;14.87;88.71;98625.06;2006630;80;20190;-78
2021/08/08 00:55:05;;;;;;;10.05;2.28;;;;;;;14.86;89.00;98628.59;2006715;80;20162;-78
2021/08/08 00:58:07;;;;;;;0.69;0.30;;;;;;;14.85;89.19;98630.34;2010027;80;20202;-78
2021/08/08 01:01:14;;;;;;;1.49;0.30;;;;;;;14.86;89.25;98628.59;2012374;77;21220;-78
2021/08/08 01:04:23;;;;;;;1.55;0.36;;;;;;;14.85;89.30;98627.72;2023145;80;20228;-78
2021/08/08 01:07:31;;;;;;;0.66;0.20;;;;;;;14.87;89.21;98627.69;2022756;80;20208;-78
2021/08/08 01:10:35;;;;;;;1.54;0.34;;;;;;;14.85;89.07;98635.56;2022687;80;20182;-77
2021/08/08 01:13:38;;;;;;;2.53;0.39;;;;;;;14.84;89.17;98636.47;2022944;80;20549;-77
2021/08/08 01:16:43;;;;;;;1.17;0.30;;;;;;;14.81;89.34;98632.22;2021396;77;20163;-78
2021/08/08 01:19:59;;;;;;;4.29;0.32;;;;;;;14.75;89.21;98632.44;2022827;80;20191;-77
2021/08/08 01:23:05;;;;;;;2.09;0.47;;;;;;;14.74;89.31;98637.72;2021656;80;20499;-77
2021/08/08 01:26:07;;;;;;;3.14;1.04;;;;;;;14.66;89.08;98637.94;2023169;80;20257;-77
2021/08/08 01:29:10;;;;;;;3.47;0.76;;;;;;;14.63;89.29;98639.81;2023614;80;20163;-77
2021/08/08 01:32:13;;;;;;;2.61;0.30;;;;;;;14.59;89.64;98646.91;2017512;77;20754;-77
2021/08/08 01:35:15;;;;;;;3.83;0.36;;;;;;;14.54;89.75;98648.78;2007815;80;20696;-78
2021/08/08 01:38:20;;;;;;;3.38;0.40;;;;;;;14.48;89.79;98649.84;2006438;80;20185;-78
2021/08/08 01:41:26;;;;;;;4.28;0.26;;;;;;;14.45;89.94;98642.13;2006967;80;20647;-77
2021/08/08 01:44:35;;;;;;;1.90;0.20;;;;;;;14.41;90.38;98648.31;2006240;80;20177;-78
2021/08/08 01:47:44;;;;;;;1.89;0.35;;;;;;;14.39;90.53;98644.03;2019788;77;22495;-78
2021/08/08 01:50:48;;;;;;;1.27;0.47;;;;;;;14.37;90.59;98651.09;2022112;80;20171;-77
2021/08/08 01:53:51;;;;;;;1.69;0.20;;;;;;;14.34;90.36;98656.38;2022154;80;20171;-78
2021/08/08 01:56:53;;;;;;;2.75;0.30;;;;;;;14.34;90.42;98651.16;2022173;80;20209;-78
2021/08/08 01:59:56;;;;;;;3.53;0.30;;;;;;;14.32;90.35;98655.56;2022392;80;20210;-78
2021/08/08 02:02:59;;;;;;;2.22;0.35;;;;;;;14.29;90.38;98655.66;2022412;77;21692;-78
2021/08/08 02:06:03;;;;;;;3.88;0.30;;;;;;;14.24;90.39;98662.81;2023895;80;20205;-77
2021/08/08 02:09:06;;;;;;;2.45;0.29;;;;;;;14.16;90.60;98661.25;2024327;80;20199;-77
2021/08/08 02:12:10;;;;;;;1.30;0.30;;;;;;;14.09;90.61;98659.75;2024782;80;20171;-77
2021/08/08 02:15:12;;;;;;;2.76;0.40;;;;;;;14.04;90.64;98660.81;2022629;79;20183;-77
2021/08/08 02:18:16;;;;;;;2.25;0.50;;;;;;;13.98;90.79;98659.22;2008791;78;23306;-77
2021/08/08 02:21:19;;;;;;;1.70;0.40;;;;;;;13.93;90.71;98666.34;2008789;80;20161;-78
2021/08/08 02:24:22;;;;;;;2.71;0.31;;;;;;;13.90;90.86;98669.88;2008923;80;20340;-78
2021/08/08 02:27:24;;;;;;;1.58;0.32;;;;;;;13.87;90.84;98661.31;2008490;80;20161;-77
2021/08/08 02:30:28;;;;;;;1.89;0.30;;;;;;;13.82;90.96;98671.00;2009860;77;26660;-77
2021/08/08 02:33:30;;;;;;;4.54;0.40;;;;;;;13.79;91.03;98666.72;2025380;80;20356;-77
2021/08/08 02:36:33;;;;;;;0.91;0.43;;;;;;;13.81;91.25;98671.91;2024476;80;20284;-77
2021/08/08 02:39:36;;;;;;;2.04;0.30;;;;;;;13.77;90.84;98673.75;2025350;80;20190;-77
2021/08/08 02:42:39;;;;;;;1.27;0.30;;;;;;;13.75;90.88;98672.94;2024734;80;20167;-77
2021/08/08 02:45:41;;;;;;;2.41;0.41;;;;;;;13.75;90.96;98674.69;2019811;78;20239;-77
2021/08/08 02:48:44;;;;;;;1.16;0.30;;;;;;;13.73;90.93;98681.72;2008838;80;20173;-77
2021/08/08 02:51:47;;;;;;;3.86;0.40;;;;;;;13.70;91.17;98685.28;2009208;80;20198;-77
2021/08/08 02:54:49;;;;;;;2.81;0.30;;;;;;;13.72;91.18;98698.28;2008155;80;20171;-77
2021/08/08 02:57:52;;;;;;;5.25;0.40;;;;;;;13.68;91.02;98697.50;2008249;80;20445;-78
2021/08/08 03:00:54;;;;;;;1.95;0.40;;;;;;;13.63;91.07;98707.19;2012388;77;20274;-77
2021/08/08 03:03:57;;;;;;;6.43;0.40;;;;;;;13.61;91.14;98706.38;2024502;80;20228;-77
2021/08/08 03:07:00;;;;;;;2.90;0.30;;;;;;;13.60;91.20;98709.88;2023492;80;20247;-78
2021/08/08 03:10:04;;;;;;;1.51;0.40;;;;;;;13.54;91.10;98703.09;2024072;80;20193;-77
2021/08/08 03:13:06;;;;;;;2.75;0.41;;;;;;;13.52;91.20;98698.81;2023366;80;20198;-77
2021/08/08 03:16:09;;;;;;;5.20;0.61;;;;;;;13.50;91.09;98705.84;2022801;77;20465;-78
2021/08/08 03:19:12;;;;;;;4.71;0.51;;;;;;;13.47;91.27;98712.00;2024095;80;20779;-78
2021/08/08 03:22:15;;;;;;;1.21;0.50;;;;;;;13.46;91.35;98707.66;2023215;80;20171;-77
2021/08/08 03:25:17;;;;;;;2.22;0.40;;;;;;;13.45;91.33;98716.38;2023753;80;20247;-78
2021/08/08 03:28:20;;;;;;;3.14;0.43;;;;;;;13.44;91.14;98717.28;2023816;80;20943;-78
2021/08/08 03:31:23;;;;;;;3.24;0.60;;;;;;;13.42;91.06;98720.81;2015060;78;22584;-78
2021/08/08 03:34:26;;;;;;;3.03;0.73;;;;;;;13.39;91.37;98718.31;2007342;80;20193;-78
2021/08/08 03:37:29;;;;;;;1.83;0.40;;;;;;;13.37;91.15;98728.78;2007565;80;20165;-78
2021/08/08 03:40:31;;;;;;;7.05;0.43;;;;;;;13.34;91.23;98733.22;2007863;80;20198;-78
2021/08/08 03:43:34;;;;;;;1.08;0.30;;;;;;;13.30;91.18;98728.09;2007213;80;20177;-77
2021/08/08 03:46:36;;;;;;;4.19;0.32;;;;;;;13.22;90.94;98735.22;2014849;78;26361;-77
2021/08/08 03:49:39;;;;;;;2.66;0.50;;;;;;;13.22;90.95;98744.81;2023187;80;20241;-78
2021/08/08 03:52:41;;;;;;;1.15;0.30;;;;;;;13.21;91.02;98749.16;2023337;80;20167;-78
2021/08/08 03:55:44;;;;;;;2.46;0.30;;;;;;;13.16;91.14;98743.19;2024115;80;20236;-77
2021/08/08 03:58:47;;;;;;;1.70;0.49;;;;;;;13.09;91.19;98744.22;2023320;80;20266;-77
2021/08/08 04:01:49;;;;;;;3.95;0.75;;;;;;;13.10;91.58;98750.28;2012117;78;22703;-77
2021/08/08 04:04:52;;;;;;;1.59;0.31;;;;;;;13.10;91.69;98745.06;2007178;80;20557;-78
2021/08/08 04:07:55;;;;;;;1.55;0.46;;;;;;;13.07;91.71;98752.97;2007265;80;20516;-77
2021/08/08 04:10:57;;;;;;;2.61;0.55;;;;;;;13.06;91.81;98751.25;2006999;80;21072;-78
2021/08/08 04:14:00;;;;;;;3.49;0.50;;;;;;;13.03;91.69;98752.19;2007065;80;20226;-78
2021/08/08 04:17:04;;;;;;;4.50;0.40;;;;;;;12.97;91.70;98752.34;2017594;77;21598;-78
2021/08/08 04:20:07;;;;;;;1.21;0.40;;;;;;;12.91;91.68;98755.09;2023954;80;21056;-77
2021/08/08 04:23:10;;;;;;;5.30;0.57;;;;;;;12.89;92.05;98756.88;2023591;80;20204;-78
2021/08/08 04:26:13;;;;;;;2.69;0.50;;;;;;;12.88;92.34;98756.03;2027392;80;20175;-78
2021/08/08 04:29:15;;;;;;;2.72;0.50;;;;;;;12.88;92.40;98769.06;2023115;80;20175;-78
2021/08/08 04:32:18;;;;;;;2.59;0.63;;;;;;;12.92;92.45;98775.03;2022409;77;20842;-78
2021/08/08 04:35:21;;;;;;;4.40;0.60;;;;;;;12.92;92.45;98778.50;2022450;80;20244;-77
2021/08/08 04:38:23;;;;;;;6.54;0.60;;;;;;;12.94;92.63;98784.56;2023323;80;20171;-78
2021/08/08 04:41:26;;;;;;;3.06;0.55;;;;;;;12.97;92.63;98791.44;2022930;80;20175;-78
2021/08/08 04:44:28;;;;;;;3.85;0.76;;;;;;;12.98;92.71;98790.56;2023493;80;20709;-77
2021/08/08 04:47:31;;;;;;;3.00;0.79;;;;;;;13.03;92.69;98786.09;2010267;77;20966;-78
2021/08/08 04:50:33;;;;;;;2.25;0.40;;;;;;;13.12;92.94;98788.47;2006472;80;20296;-78
2021/08/08 04:53:36;;;;;;;1.31;0.66;;;;;;;13.21;92.96;98796.09;2006974;80;20708;-78
2021/08/08 04:56:39;;;;;;;7.86;0.77;;;;;;;13.31;92.87;98801.94;2006631;80;20240;-77
2021/08/08 04:59:41;;;;;;;1.00;0.50;;;;;;;13.34;92.78;98803.63;2007841;80;20216;-78
2021/08/08 05:02:45;;;;;;;1.49;0.51;;;;;;;13.40;92.68;98806.91;2021174;77;21171;-79
2021/08/08 05:05:48;;;;;;;4.74;0.88;;;;;;;13.40;92.62;98811.28;2022882;80;20615;-78
2021/08/08 05:08:50;;;;;;;6.04;0.90;;;;;;;13.41;92.60;98811.25;2023546;80;20292;-78
2021/08/08 05:11:53;;;;;;;2.49;0.60;;;;;;;13.50;92.62;98813.63;2023362;80;20167;-77
2021/08/08 05:14:56;;;;;;;2.36;0.69;;;;;;;13.59;92.58;98815.13;2022415;80;20271;-78
2021/08/08 05:17:58;;;;;;;1.99;0.50;;;;;;;13.71;92.49;98816.56;2006419;78;20982;-78
2021/08/08 05:21:01;;;;;;;4.78;0.60;;;;;;;13.76;92.16;98819.91;2007887;80;20203;-78
2021/08/08 05:24:03;;;;;;;4.00;0.82;;;;;;;13.82;91.94;98815.41;2008221;80;20185;-79
2021/08/08 05:27:06;;;;;;;4.74;0.60;;;;;;;13.87;91.57;98818.75;2008385;80;20199;-79
2021/08/08 05:30:10;;;;;;;5.06;0.70;;;;;;;13.97;91.36;98816.72;2007746;80;20244;-80
2021/08/08 05:33:12;;;;;;;3.36;0.61;;;;;;;14.06;90.92;98815.63;2024197;77;21549;-80
2021/08/08 05:36:15;;;;;;;3.70;0.61;;;;;;;14.18;90.60;98813.53;2026384;79;20258;-79
2021/08/08 05:39:18;;;;;;;2.66;0.55;;;;;;;14.37;90.54;98815.63;2023040;80;20183;-79
2021/08/08 05:42:20;;;;;;;7.20;0.60;;;;;;;14.56;90.10;98805.53;2025970;80;20259;-79
2021/08/08 05:45:23;;;;;;;2.40;0.70;;;;;;;14.97;88.86;98807.72;2022485;78;21637;-80
2021/08/08 05:48:26;;;;;;;3.35;0.47;;;;;;;15.26;87.25;98816.38;2006562;80;20192;-79
2021/08/08 05:51:29;;;;;;;3.25;0.50;;;;;;;15.55;86.19;98815.41;2006094;80;20327;-79
2021/08/08 05:54:32;;;;;;;1.65;0.50;;;;;;;15.94;84.52;98831.53;2006117;80;20236;-79
2021/08/08 05:57:35;;;;;;;3.88;0.54;;;;;;;16.35;81.91;98834.47;2009064;80;20180;-80
2021/08/08 06:00:38;;;;;;;3.44;0.40;;;;;;;16.65;79.80;98840.31;2009427;80;20744;-79
2021/08/08 06:03:41;;;;;;;2.34;0.45;;;;;;;16.53;79.14;98846.88;2010359;80;20673;-80
2021/08/08 06:06:43;;;;;;;6.26;0.50;;;;;;;16.50;78.26;98842.59;2012675;80;20253;-80
2021/08/08 06:09:46;;;;;;;2.89;0.70;;;;;;;16.83;77.67;98847.50;2010269;80;20215;-80
2021/08/08 06:12:48;;;;;;;4.09;0.60;;;;;;;16.94;75.16;98857.59;2013615;80;20272;-80
2021/08/08 06:15:51;;;;;;;2.74;0.70;;;;;;;17.17;75.85;98850.53;2011755;80;20199;-79
2021/08/08 06:18:53;;;;;;;2.94;0.50;;;;;;;17.43;75.33;98848.63;2013761;80;20816;-80
2021/08/08 06:21:58;;;;;;;1.45;0.40;;;;;;;17.47;73.47;98856.31;2019038;80;20173;-84
2021/08/08 06:29:18;;;;;;;6.59;0.84;;;;;;;17.52;73.32;98867.47;2013798;70;20163;-82
2021/08/08 06:36:28;;;;;;;2.19;0.54;;;;;;;17.55;73.23;98869.09;1985941;76;20171;-83
2021/08/08 06:39:35;;;;;;;4.07;0.70;;;;;;;17.41;73.03;98880.16;2005406;80;20178;-81
2021/08/08 06:46:30;;;;;;;2.76;0.70;;;;;;;18.08;70.71;98895.78;1991982;80;1767352;-82
2021/08/08 06:49:45;;;;;;;3.49;0.81;;;;;;;18.10;70.98;98888.69;2035238;69;20195;-81
2021/08/08 07:00:25;;;;;;;3.63;0.60;;;;;;;19.10;66.28;98898.25;2009983;70;24140;-79
2021/08/08 07:03:43;;;;;;;4.57;0.61;;;;;;;18.80;65.77;98904.94;2002965;80;20686;-78
2021/08/08 07:06:45;;;;;;;4.54;0.60;;;;;;;18.43;67.03;98911.81;2002638;81;21036;-78
2021/08/08 07:09:48;;;;;;;7.36;1.05;;;;;;;18.11;68.13;98913.19;2003628;80;20208;-79
2021/08/08 07:12:50;;;;;;;3.03;0.70;;;;;;;17.80;68.09;98922.38;2003940;80;20192;-79
2021/08/08 07:15:53;;;;;;;3.97;0.65;;;;;;;17.76;67.87;98925.16;2006917;77;21178;-79
2021/08/08 07:18:56;;;;;;;3.58;0.61;;;;;;;17.67;68.39;98920.28;2009846;80;20193;-79
2021/08/08 07:21:58;;;;;;;1.71;0.84;;;;;;;17.46;69.18;98925.47;2009823;80;20197;-79
2021/08/08 07:25:01;;;;;;;3.38;0.56;;;;;;;17.37;70.30;98922.34;2009314;80;20197;-79
2021/08/08 07:28:05;;;;;;;4.30;1.39;;;;;;;17.41;72.21;98914.28;2008949;80;20185;-80
2021/08/08 07:31:08;;;;;;;5.76;0.89;;;;;;;17.55;70.06;98915.50;2017642;77;21916;-79
2021/08/08 07:34:11;;;;;;;4.01;0.65;;;;;;;17.62;70.06;98915.22;2025905;80;20197;-79
2021/08/08 07:37:13;;;;;;;4.14;0.66;;;;;;;17.61;70.18;98910.03;2030934;80;20193;-81
2021/08/08 07:40:16;;;;;;;4.86;0.66;;;;;;;17.55;71.05;98915.50;2037253;69;20228;-80
2021/08/08 07:43:19;;;;;;;4.34;1.00;;;;;;;17.47;71.16;98915.81;2002695;80;20217;-80
2021/08/08 07:46:25;;;;;;;3.51;0.90;;;;;;;17.37;71.29;98923.19;2001725;81;20227;-80
2021/08/08 07:53:02;;;;;;;3.06;0.75;;;;;;;17.34;71.02;98922.47;2007822;70;20179;-79
2021/08/08 07:56:07;;;;;;;5.07;0.71;;;;;;;18.14;70.07;98928.00;2001284;81;20210;-81
2021/08/08 08:06:35;;;;;;;3.14;0.73;;;;;;;20.23;64.16;98921.69;2012896;79;20198;-84
2021/08/08 08:09:38;;;;;;;3.56;0.74;;;;;;;20.72;62.09;98940.28;2011833;80;20340;-81
2021/08/08 08:12:41;;;;;;;6.11;0.80;;;;;;;20.34;59.71;98947.53;2001322;80;20179;-79
2021/08/08 08:15:44;;;;;;;6.14;0.60;;;;;;;19.68;60.57;98944.69;1999733;77;41789;-80
2021/08/08 08:18:47;;;;;;;5.43;0.85;;;;;;;19.23;62.79;98943.28;1999927;80;20349;-79
2021/08/08 08:21:53;;;;;;;5.74;0.64;;;;;;;19.13;64.03;98944.63;2001824;80;20228;-82
2021/08/08 08:25:22;;;;;;;5.03;0.79;;;;;;;19.42;64.50;98941.50;2001463;80;20186;-80
2021/08/08 08:28:29;;;;;;;5.54;0.76;;;;;;;19.72;62.31;98944.44;1998824;80;20178;-80
2021/08/08 08:31:33;;;;;;;5.26;0.85;;;;;;;19.79;60.17;98951.13;2000563;77;81970;-80
2021/08/08 08:34:36;;;;;;;4.78;0.70;;;;;;;19.56;61.29;98948.75;2004110;80;20329;-79
2021/08/08 08:37:39;;;;;;;3.46;0.76;;;;;;;19.20;61.51;98949.53;2005350;80;20199;-80
2021/08/08 08:40:42;;;;;;;7.46;0.85;;;;;;;18.99;62.64;98950.50;2004969;81;20228;-79
2021/08/08 08:43:45;;;;;;;5.43;0.70;;;;;;;18.71;63.51;98956.19;2003051;80;20170;-80
2021/08/08 08:46:48;;;;;;;3.15;0.80;;;;;;;18.46;64.26;98956.34;2001204;77;20351;-80
2021/08/08 08:49:58;;;;;;;3.30;0.70;;;;;;;18.22;64.23;98962.66;2000256;81;21129;-80
2021/08/08 08:53:02;;;;;;;3.44;0.63;;;;;;;18.15;65.55;98962.09;1997577;80;20547;-79
2021/08/08 08:56:05;;;;;;;4.19;0.76;;;;;;;18.18;65.59;98969.84;2008957;80;20263;-83
2021/08/08 08:59:28;;;;;;;4.28;0.96;;;;;;;18.14;64.86;98970.03;2007706;81;20293;-84
2021/08/08 09:06:23;;;;;;;3.69;0.83;;;;;;;17.92;65.28;98977.94;2034029;70;20164;-82
2021/08/08 09:24:50;;;;;;;5.74;0.93;;;;;;;19.71;62.56;98979.63;2031248;70;20258;-85
2021/08/08 09:57:05;;;;;;;6.51;0.77;;;;;;;21.09;54.41;98986.69;2076223;70;20183;-85
2021/08/08 10:00:09;;;;;;;3.09;0.84;;;;;;;21.10;55.64;98983.94;2030518;80;20171;-86
2021/08/08 10:03:15;;;;;;;4.68;0.80;;;;;;;21.02;54.65;98986.16;2143594;69;20218;-84
2021/08/08 10:06:19;;;;;;;3.56;0.90;;;;;;;20.67;54.59;98984.53;2010428;81;20183;-85
2021/08/08 10:09:25;;;;;;;5.88;1.21;;;;;;;20.58;55.92;98980.56;2004655;81;20929;-82
2021/08/08 10:12:43;;;;;;;3.15;0.90;;;;;;;20.67;56.84;98977.47;2065972;70;20200;-81
2021/08/08 10:15:50;;;;;;;4.64;0.83;;;;;;;20.80;56.93;98980.28;2003274;77;21341;-82
2021/08/08 10:18:54;;;;;;;4.24;0.90;;;;;;;21.05;57.21;98979.88;2004039;81;20203;-81
2021/08/08 10:21:57;;;;;;;3.50;0.70;;;;;;;21.42;54.90;98982.25;2004616;81;20220;-81
2021/08/08 10:25:01;;;;;;;3.81;0.94;;;;;;;21.83;54.40;98983.50;2006060;81;20216;-81
2021/08/08 10:28:06;;;;;;;4.56;0.81;;;;;;;;;;2003344;81;20639;-81
2021/08/08 10:31:10;;;;;;;4.57;0.90;;;;;;;22.07;51.06;98997.97;2005436;78;21449;-81
2021/08/08 10:34:12;;;;;;;4.54;0.80;;;;;;;21.79;52.22;98984.63;2009715;80;20210;-80
2021/08/08 10:37:16;;;;;;;8.06;1.24;;;;;;;21.77;53.58;98984.69;2010802;81;20182;-82
2021/08/08 10:40:27;;;;;;;2.64;0.80;;;;;;;21.83;51.00;98999.34;2011962;80;20194;-82
2021/08/08 10:43:44;;;;;;;4.11;0.77;;;;;;;21.90;52.29;98979.53;2011569;80;20173;-82
2021/08/08 10:47:04;;;;;;;5.51;0.96;;;;;;;22.01;51.86;98993.00;2001138;70;100865;-80
2021/08/08 10:50:10;;;;;;;3.30;1.08;;;;;;;21.81;50.55;98995.94;1999108;81;20170;-80
2021/08/08 10:53:28;;;;;;;4.34;0.79;;;;;;;21.66;52.22;98995.88;2002571;80;20191;-80
2021/08/08 10:56:48;;;;;;;4.49;0.90;;;;;;;21.50;52.26;98996.81;2003029;81;20179;-80
2021/08/08 10:59:52;;;;;;;3.53;0.70;;;;;;;21.13;53.37;99001.41;2005862;81;20345;-79
2021/08/08 11:02:55;;;;;;;3.81;0.81;;;;;;;21.01;55.20;99004.72;1997161;77;34005;-79
2021/08/08 11:05:58;;;;;;;5.63;0.91;;;;;;;21.21;55.31;99012.44;1999845;81;20195;-81
2021/08/08 11:09:02;;;;;;;4.47;0.70;;;;;;;21.53;54.42;99018.59;1999277;80;20182;-80
2021/08/08 11:12:07;;;;;;;4.35;1.01;;;;;;;21.59;54.77;99018.28;2022610;80;20238;-77
2021/08/08 11:15:15;;;;;;;3.34;0.74;;;;;;;21.40;55.22;99028.16;2008123;81;20198;-82
2021/08/08 11:18:29;;;;;;;3.06;0.65;;;;;;;20.85;56.96;99041.63;2005274;77;38665;-79
2021/08/08 11:21:32;;;;;;;3.50;0.69;;;;;;;20.34;60.76;99032.75;2006157;81;20236;-80
2021/08/08 11:24:50;;;;;;;4.19;0.80;;;;;;;20.10;63.07;99028.69;2008723;81;20207;-81
2021/08/08 11:28:39;;;;;;;5.49;2.03;;;;;;;20.29;63.72;99029.50;2011656;80;20178;-82
2021/08/08 11:32:37;;;;;;;3.76;0.60;;;;;;;20.89;63.33;99029.13;1990058;81;1824936;-82
2021/08/08 11:36:02;;;;;;;3.17;0.71;;;;;;;21.36;62.17;99023.97;2009757;80;20182;-80
2021/08/08 11:39:10;;;;;;;3.97;0.70;;;;;;;21.02;60.73;99019.63;2009591;80;20190;-80
2021/08/08 11:42:15;;;;;;;4.20;0.80;;;;;;;20.66;61.05;99025.03;2008775;80;20361;-82
2021/08/08 11:45:40;;;;;;;3.94;1.27;;;;;;;20.37;61.84;99022.06;2007670;77;22141;-77
2021/08/08 11:48:43;;;;;;;3.91;0.70;;;;;;;20.23;64.04;99025.38;2019755;80;20290;-77
2021/08/08 11:51:59;;;;;;;2.39;0.60;;;;;;;20.02;65.34;99038.75;2019587;80;20624;-78
2021/08/08 11:55:07;;;;;;;3.44;0.74;;;;;;;19.68;66.83;99040.34;2020078;80;20235;-77
2021/08/08 11:58:13;;;;;;;3.96;1.05;;;;;;;19.50;68.05;99039.41;2018196;80;20183;-77
2021/08/08 12:01:20;;;;;;;3.40;0.76;;;;;;;19.31;68.42;99046.44;2010780;77;21749;-78
2021/08/08 12:04:23;;;;;;;4.96;1.00;;;;;;;19.21;68.95;99040.75;2005461;80;20177;-78
2021/08/08 12:07:28;;;;;;;2.49;0.90;;;;;;;19.24;70.12;99037.97;2003389;81;20217;-78
2021/08/08 12:10:33;;;;;;;4.59;0.82;;;;;;;19.35;70.61;99037.47;2003211;81;20177;-78
2021/08/08 12:13:36;;;;;;;3.64;0.75;;;;;;;19.51;71.24;99037.63;2003404;81;20181;-78
2021/08/08 12:16:38;;;;;;;4.70;1.01;;;;;;;19.59;70.81;99039.03;2010718;77;22820;-78
2021/08/08 12:19:44;;;;;;;1.99;0.60;;;;;;;19.84;71.27;99038.72;2018923;80;20232;-79
2021/08/08 12:22:47;;;;;;;2.79;0.70;;;;;;;19.96;70.40;99031.16;2018295;80;20248;-77
2021/08/08 12:25:59;;;;;;;1.86;0.54;;;;;;;19.99;68.41;99033.63;2017514;80;21358;-78
2021/08/08 12:29:07;;;;;;;3.15;0.60;;;;;;;20.08;67.49;99026.13;2020392;80;20195;-78
2021/08/08 12:32:14;;;;;;;3.60;0.70;;;;;;;20.24;66.74;99034.13;2006686;77;20202;-78
2021/08/08 12:35:18;;;;;;;2.92;0.52;;;;;;;20.59;66.47;99032.41;2001403;81;20274;-78
2021/08/08 12:38:21;;;;;;;3.97;0.88;;;;;;;21.23;65.31;99025.56;2002194;81;20394;-78
2021/08/08 12:41:27;;;;;;;2.36;0.59;;;;;;;21.74;60.17;99024.53;2000979;80;20198;-79
2021/08/08 12:44:36;;;;;;;1.96;0.61;;;;;;;21.65;58.84;99023.22;2002599;80;20209;-78
2021/08/08 12:47:41;;;;;;;2.30;0.82;;;;;;;21.65;61.32;99017.09;2014779;77;21097;-78
2021/08/08 12:50:46;;;;;;;3.24;0.60;;;;;;;21.47;58.16;99010.19;2020134;80;20915;-79
2021/08/08 12:53:49;;;;;;;3.60;0.70;;;;;;;21.23;59.09;99020.28;2025784;80;20259;-82
2021/08/08 12:56:51;;;;;;;2.90;0.60;;;;;;;21.01;60.70;99021.41;2024036;80;20269;-79
2021/08/08 12:59:54;;;;;;;4.07;0.64;;;;;;;20.74;61.43;99036.03;2019325;80;20171;-79
2021/08/08 13:02:57;;;;;;;4.65;0.60;;;;;;;20.49;61.66;99037.31;2019189;77;103657;-79
2021/08/08 13:06:02;;;;;;;6.89;0.70;;;;;;;20.23;62.09;99075.47;2022222;80;20229;-75
2021/08/08 13:09:04;;;;;;;1.91;0.35;;;;;;;19.48;60.20;99128.16;2016975;80;20274;-79
2021/08/08 13:12:07;;;;;;;1.69;0.50;;;;;;;18.63;64.19;99110.81;2018367;80;20168;-81
2021/08/08 14:29:21;;;;;;;2.00;0.40;;;;;;;21.60;57.07;99101.06;2010009;70;20206;-83
2021/08/08 14:45:21;;;;;;;2.04;0.41;;;;;;;21.91;58.51;99113.47;2015833;80;20206;-83
2021/08/08 14:57:31;;;;;;;1.52;0.50;;;;;;;21.03;56.98;99119.88;2013086;70;20222;-82
2021/08/08 15:01:33;;;;;;;2.16;0.49;;;;;;;20.79;57.18;99126.38;2014920;80;20219;-81
2021/08/08 15:05:14;;;;;;;2.44;0.39;;;;;;;20.94;56.99;99125.59;2007407;80;20228;-81
2021/08/08 15:09:21;;;;;;;3.11;0.40;;;;;;;21.10;52.56;99125.66;2009090;81;20179;-82
2021/08/08 15:12:59;;;;;;;1.56;0.39;;;;;;;21.42;54.40;99122.25;2000415;81;20214;-79
2021/08/08 15:16:03;;;;;;;3.11;0.40;;;;;;;21.64;52.15;99124.59;1999095;81;20208;-78
2021/08/08 15:19:09;;;;;;;2.40;0.40;;;;;;;21.53;52.20;99126.09;2003587;81;20192;-80
2021/08/08 15:22:21;;;;;;;2.26;0.32;;;;;;;21.64;54.21;99126.38;2005069;81;20190;-80
2021/08/08 15:25:39;;;;;;;1.98;0.30;;;;;;;21.85;52.29;99119.91;2001227;81;20214;-80
2021/08/08 15:28:51;;;;;;;0.65;0.20;;;;;;;21.97;50.90;99119.25;2001766;81;20179;-80
2021/08/08 15:31:55;;;;;;;0.91;0.20;;;;;;;22.02;51.66;99124.28;2001123;77;181679;-80
2021/08/08 15:34:58;;;;;;;0.55;0.22;;;;;;;22.21;50.18;99126.78;2000666;80;20181;-78
2021/08/08 15:38:01;;;;;;;0.45;0.22;;;;;;;22.19;49.63;99121.59;2001730;80;20233;-77
2021/08/08 15:41:03;;;;;;;0.93;0.20;;;;;;;21.79;49.31;99130.84;2001485;80;20170;-76
2021/08/08 15:44:10;;;;;;;1.73;0.20;;;;;;;21.59;48.42;99126.63;2033716;70;20242;-81
2021/08/08 15:47:18;;;;;;;0.19;0.10;;;;;;;21.62;48.01;99128.25;2011018;77;221812;-82
2021/08/08 15:50:23;;;;;;;0.50;0.20;;;;;;;21.65;48.13;99128.94;2013153;80;20178;-83
2021/08/08 15:53:26;;;;;;;1.16;0.16;;;;;;;22.03;50.59;99132.13;2012359;81;20213;-82
2021/08/08 15:56:31;;;;;;;1.75;0.20;;;;;;;22.29;49.64;99124.56;2013157;81;20190;-83
2021/08/08 15:59:34;;;;;;;0.69;0.20;;;;;;;22.53;50.83;99140.84;2016968;81;20256;-84
2021/08/08 16:02:38;;;;;;;0.44;0.10;;;;;;;22.47;48.07;99141.19;2022122;79;978321;-83
2021/08/08 16:05:55;;;;;;;1.11;0.16;;;;;;;22.55;44.84;99146.91;2027276;70;20350;-84
2021/08/08 16:12:33;;;;;;;0.68;0.10;;;;;;;22.89;45.44;99146.69;2019827;70;20282;-82
2021/08/08 16:15:36;;;;;;;0.66;0.10;;;;;;;23.18;45.68;99142.31;2005475;81;20174;-82
2021/08/08 16:18:38;;;;;;;2.39;0.20;;;;;;;23.45;46.49;99139.78;2006647;81;20253;-82
2021/08/08 16:21:43;;;;;;;1.17;0.10;;;;;;;23.56;46.13;99146.22;2005973;81;20191;-82
2021/08/08 16:24:56;;;;;;;1.05;0.13;;;;;;;23.37;45.08;99151.81;2008039;81;20212;-82
2021/08/08 16:28:06;;;;;;;0.41;0.13;;;;;;;22.97;43.68;99151.50;2004657;81;20163;-81
2021/08/08 16:31:10;;;;;;;;;;;;;;;22.54;45.52;99156.63;2005388;81;20223;-81
2021/08/08 16:34:13;;;;;;;0.74;0.20;;;;;;;22.14;46.77;99165.09;2005013;81;20074;-81
2021/08/08 16:37:19;;;;;;;1.04;0.20;;;;;;;21.54;44.14;99167.44;2003775;81;20190;-81
2021/08/08 16:40:22;;;;;;;0.73;0.15;;;;;;;21.13;46.14;99167.75;2003598;81;20247;-81
2021/08/08 16:43:24;;;;;;;1.34;0.10;;;;;;;20.70;45.62;99167.28;2008604;81;20280;-82
2021/08/08 16:46:27;;;;;;;1.80;0.20;;;;;;;20.44;47.93;99178.22;2002166;77;21550;-82
2021/08/08 16:49:30;;;;;;;1.84;0.19;;;;;;;20.10;48.03;99184.22;2002793;81;20206;-81
2021/08/08 16:52:33;;;;;;;1.77;0.20;;;;;;;19.85;49.27;99187.97;2003176;81;20186;-80
2021/08/08 16:55:35;;;;;;;0.55;0.20;;;;;;;19.73;51.17;99193.78;2003669;81;20208;-80
2021/08/08 16:58:38;;;;;;;0.79;0.14;;;;;;;19.59;50.67;99194.44;2001188;81;20178;-81
2021/08/08 17:01:41;;;;;;;0.73;0.20;;;;;;;19.52;50.48;99200.00;2000364;77;21831;-80
2021/08/08 17:04:44;;;;;;;0.43;0.20;;;;;;;19.51;52.07;99201.75;2000433;81;20670;-81
2021/08/08 17:07:46;;;;;;;1.70;0.24;;;;;;;19.48;52.17;99199.28;2001135;81;20320;-80
2021/08/08 17:10:49;;;;;;;0.63;0.30;;;;;;;19.50;54.26;99204.47;2004099;80;20274;-81
2021/08/08 17:13:52;;;;;;;0.82;0.20;;;;;;;19.45;53.47;99209.94;1999758;81;20194;-80
2021/08/08 17:16:55;;;;;;;2.46;0.20;;;;;;;19.39;55.80;99211.97;2002638;77;24551;-80
2021/08/08 17:19:58;;;;;;;0.45;0.22;;;;;;;19.24;55.74;99209.09;2002530;81;20199;-80
2021/08/08 17:23:01;;;;;;;0.70;0.20;;;;;;;19.12;55.26;99221.91;1988337;77;120832;-80
2021/08/08 17:26:04;;;;;;;0.91;0.20;;;;;;;19.07;54.19;99216.00;1995703;80;20187;-80
2021/08/08 17:29:08;;;;;;;0.24;0.10;;;;;;;19.07;54.52;99210.72;1996570;81;20194;-80
2021/08/08 17:32:11;;;;;;;2.53;0.20;;;;;;;19.06;54.48;99219.53;1997306;77;30981;-79